Time;durP1;ratioP1;P1;durP2;ratioP2;P2;SDS_P1;SDS_P2;PMS_P1;PMS_P2;Temp;Humidity;BMP_temperature;BMP_pressure;BME280_temperature;BME280_humidity;BME280_pressure;Samples;Min_cycle;Max_cycle;Signal;HPM_P1;HPM_P2
2023/01/05 00:01:16;;;;;;;14.85;3.87;;;;;;;8.96;100.00;98195.66;2170073;82;21061;-59
2023/01/05 00:04:18;;;;;;;13.98;4.00;;;;;;;8.96;100.00;98208.74;2170090;82;21078;-59
2023/01/05 00:07:19;;;;;;;14.10;3.90;;;;;;;8.95;100.00;98207.09;2169903;82;21062;-59
2023/01/05 00:22:34;;;;;;;18.23;4.67;;;;;;;8.86;100.00;98205.52;2149359;82;20991;-59
2023/01/05 00:25:35;;;;;;;16.20;4.67;;;;;;;9.08;100.00;98208.89;2170523;82;21525;-59
2023/01/05 00:28:37;;;;;;;18.92;4.72;;;;;;;8.92;100.00;98187.67;2170015;82;21358;-59
2023/01/05 00:31:38;;;;;;;17.50;4.72;;;;;;;8.93;100.00;98180.66;2170041;82;21058;-59
2023/01/05 00:34:40;;;;;;;17.57;4.67;;;;;;;8.86;100.00;98195.89;2169973;82;21094;-59
2023/01/05 00:37:41;;;;;;;17.73;4.83;;;;;;;8.79;100.00;98175.84;2169939;82;21037;-59
2023/01/05 00:40:43;;;;;;;15.93;4.95;;;;;;;8.84;100.00;98178.98;2170248;82;21577;-58
2023/01/05 00:43:44;;;;;;;18.17;5.40;;;;;;;8.80;100.00;98170.14;2169987;82;21108;-58
2023/01/05 00:46:45;;;;;;;17.50;4.87;;;;;;;8.80;100.00;98162.30;2170418;82;21496;-59
2023/01/05 00:49:47;;;;;;;19.52;5.20;;;;;;;8.69;100.00;98168.67;2170121;82;21100;-59
2023/01/05 00:52:48;;;;;;;16.80;4.70;;;;;;;8.65;100.00;98160.20;2169649;82;20994;-58
2023/01/05 00:55:50;;;;;;;16.95;4.72;;;;;;;8.68;100.00;98166.55;2170200;82;21097;-59
2023/01/05 00:58:51;;;;;;;17.57;4.92;;;;;;;8.70;100.00;98151.58;2169999;82;21030;-58
2023/01/05 01:01:53;;;;;;;19.15;5.17;;;;;;;8.76;100.00;98146.43;2170152;82;21624;-59
2023/01/05 01:04:54;;;;;;;16.12;4.80;;;;;;;8.74;100.00;98141.78;2170110;82;21064;-59
2023/01/05 01:07:56;;;;;;;17.25;4.92;;;;;;;8.72;100.00;98123.58;2170291;82;21557;-59
2023/01/05 01:10:57;;;;;;;16.42;4.45;;;;;;;8.73;100.00;98129.64;2170035;82;21062;-59
2023/01/05 01:13:59;;;;;;;16.70;4.53;;;;;;;8.80;100.00;98123.90;2169935;82;21085;-59
2023/01/05 01:17:01;;;;;;;17.85;4.62;;;;;;;8.86;100.00;98110.89;2170048;82;21118;-59
2023/01/05 01:20:02;;;;;;;18.15;4.65;;;;;;;8.88;100.00;98103.80;2170276;82;21081;-59
2023/01/05 01:23:04;;;;;;;19.07;5.20;;;;;;;8.92;100.00;98099.20;2170178;82;21121;-59
2023/01/05 01:26:05;;;;;;;16.95;4.33;;;;;;;8.94;100.00;98102.56;2169988;82;21034;-58
2023/01/05 01:29:06;;;;;;;15.98;4.28;;;;;;;8.97;100.00;98103.19;2170057;82;21116;-59
2023/01/05 01:32:08;;;;;;;14.47;4.10;;;;;;;9.01;100.00;98096.81;2170224;82;21065;-59
2023/01/05 01:35:09;;;;;;;17.92;4.47;;;;;;;8.94;100.00;98086.39;2170237;82;21612;-58
2023/01/05 01:38:11;;;;;;;17.65;4.78;;;;;;;9.03;100.00;98077.58;2170150;82;21085;-58
2023/01/05 01:41:12;;;;;;;13.85;3.65;;;;;;;9.00;100.00;98100.84;2170163;82;21548;-59
2023/01/05 01:44:14;;;;;;;15.88;4.33;;;;;;;9.07;100.00;98091.65;2170283;82;21038;-59
2023/01/05 01:47:15;;;;;;;15.20;4.50;;;;;;;9.07;100.00;98066.80;2170495;82;21525;-59
2023/01/05 01:50:17;;;;;;;15.40;3.98;;;;;;;9.11;100.00;98082.66;2170276;82;21061;-59
2023/01/05 01:53:19;;;;;;;14.53;3.70;;;;;;;9.13;100.00;98045.45;2170249;82;21086;-58
2023/01/05 01:56:20;;;;;;;12.23;3.70;;;;;;;9.15;100.00;98064.97;2170094;82;21093;-59
2023/01/05 01:59:21;;;;;;;12.70;3.25;;;;;;;9.10;100.00;98070.52;2170279;82;21047;-58
2023/01/05 02:02:23;;;;;;;14.20;3.98;;;;;;;9.09;100.00;98108.55;2170135;82;21069;-59
2023/01/05 02:05:24;;;;;;;12.55;3.50;;;;;;;9.11;100.00;98022.97;2170656;82;21078;-59
2023/01/05 02:11:29;;;;;;;12.03;3.50;;;;;;;9.01;100.00;98043.19;2149358;82;21014;-59
2023/01/05 02:14:31;;;;;;;12.63;3.63;;;;;;;8.97;100.00;98053.97;2170478;82;21041;-59
2023/01/05 02:17:32;;;;;;;16.07;4.28;;;;;;;8.95;100.00;98024.45;2170116;82;21074;-59
2023/01/05 02:20:34;;;;;;;15.20;4.42;;;;;;;8.87;100.00;98010.59;2171918;82;21013;-59
2023/01/05 02:23:35;;;;;;;13.45;3.95;;;;;;;8.83;100.00;98026.97;2180045;81;21036;-59
2023/01/05 02:26:37;;;;;;;13.85;3.98;;;;;;;8.84;100.00;98023.39;2179856;82;21492;-59
2023/01/05 02:29:38;;;;;;;14.18;4.20;;;;;;;8.77;100.00;98015.59;2180292;81;21014;-58
2023/01/05 02:32:40;;;;;;;16.48;4.25;;;;;;;8.81;100.00;98018.86;2180392;81;21461;-59
2023/01/05 02:35:42;;;;;;;14.07;4.23;;;;;;;8.69;100.00;98007.89;2180281;82;21030;-59
2023/01/05 02:38:44;;;;;;;17.42;4.65;;;;;;;8.66;100.00;97995.86;2180308;81;20993;-59
2023/01/05 02:41:45;;;;;;;17.35;4.50;;;;;;;8.64;100.00;97978.14;2180015;82;20993;-59
2023/01/05 02:44:46;;;;;;;15.98;4.05;;;;;;;8.60;100.00;97997.09;2180165;82;21457;-59
2023/01/05 02:47:48;;;;;;;18.57;4.53;;;;;;;8.59;100.00;97984.98;2180176;81;21004;-59
2023/01/05 02:50:49;;;;;;;15.13;4.40;;;;;;;8.54;100.00;97972.67;2179991;81;21014;-58
2023/01/05 02:53:51;;;;;;;15.48;4.50;;;;;;;8.56;100.00;97974.73;2179590;81;21631;-59
2023/01/05 02:56:52;;;;;;;17.40;4.75;;;;;;;8.64;100.00;97978.14;2179977;82;21053;-59
2023/01/05 02:59:53;;;;;;;16.35;4.55;;;;;;;8.61;100.00;97960.88;2179972;81;21441;-59
2023/01/05 03:02:55;;;;;;;14.15;4.20;;;;;;;8.61;100.00;97936.04;2180086;81;20982;-59
2023/01/05 03:05:57;;;;;;;15.10;4.45;;;;;;;8.63;100.00;97956.84;2180156;81;21078;-59
2023/01/05 03:08:58;;;;;;;16.27;4.47;;;;;;;8.69;100.00;97955.60;2180261;81;21029;-58
2023/01/05 03:15:03;;;;;;;14.75;4.35;;;;;;;8.77;100.00;97953.31;2150813;82;21010;-59
2023/01/05 03:18:05;;;;;;;15.87;4.40;;;;;;;8.81;100.00;97957.41;2180456;82;21060;-58
2023/01/05 03:21:06;;;;;;;13.40;4.20;;;;;;;8.84;100.00;97961.11;2176922;81;21089;-59
2023/01/05 03:36:21;;;;;;;9.80;3.25;;;;;;;9.03;100.00;97913.61;2149145;82;21022;-59
2023/01/05 03:39:25;;;;;;;13.30;3.70;;;;;;;8.91;100.00;97966.78;2170402;82;21073;-58
2023/01/05 03:42:25;;;;;;;11.90;3.90;;;;;;;8.93;100.00;97925.17;2149301;82;20983;-59
2023/01/05 03:45:27;;;;;;;12.05;3.50;;;;;;;8.97;100.00;97921.41;2170157;82;20974;-59
2023/01/05 03:48:29;;;;;;;11.10;3.37;;;;;;;9.00;100.00;97925.59;2169958;82;21122;-59
2023/01/05 03:51:30;;;;;;;11.60;3.55;;;;;;;8.98;100.00;97940.09;2170255;82;21066;-59
2023/01/05 03:54:32;;;;;;;10.03;3.02;;;;;;;9.12;100.00;97942.22;2170327;82;21504;-59
2023/01/05 03:57:33;;;;;;;12.30;3.30;;;;;;;9.13;100.00;97951.27;2170132;82;21062;-59
2023/01/05 04:00:35;;;;;;;14.07;3.65;;;;;;;9.15;100.00;97945.47;2170273;82;21544;-59
2023/01/05 04:03:37;;;;;;;12.82;3.40;;;;;;;9.20;100.00;97943.84;2170396;82;21054;-59
2023/01/05 04:06:39;;;;;;;;;;;;;;;9.16;100.00;97950.22;2172993;82;21552;-59
2023/01/05 04:09:40;;;;;;;13.10;3.33;;;;;;;9.18;100.00;97912.55;2170151;82;20155;-59
2023/01/05 04:12:42;;;;;;;12.75;3.37;;;;;;;9.16;100.00;97955.45;2170305;82;21564;-59
2023/01/05 04:15:44;;;;;;;11.83;2.70;;;;;;;9.19;100.00;97947.39;2170038;82;21109;-59
2023/01/05 04:18:45;;;;;;;9.85;2.72;;;;;;;9.24;100.00;97947.92;2170046;82;21525;-59
2023/01/05 04:21:47;;;;;;;6.72;2.50;;;;;;;9.26;100.00;97931.62;2174149;82;21096;-59
2023/01/05 04:24:48;;;;;;;8.28;2.60;;;;;;;9.34;100.00;97948.13;2180299;81;21488;-59
2023/01/05 04:27:50;;;;;;;7.92;2.40;;;;;;;9.36;100.00;97935.27;2180183;81;20954;-59
2023/01/05 04:30:51;;;;;;;8.38;2.52;;;;;;;9.41;100.00;97950.67;2180109;81;20978;-59
2023/01/05 04:33:53;;;;;;;10.38;2.67;;;;;;;9.43;100.00;97963.65;2180071;82;21021;-59
2023/01/05 04:36:54;;;;;;;10.78;2.50;;;;;;;9.44;100.00;97954.83;2179923;81;21002;-59
2023/01/05 04:39:55;;;;;;;11.78;2.52;;;;;;;9.60;100.00;97958.55;2180181;81;21540;-59
2023/01/05 04:42:57;;;;;;;9.05;2.33;;;;;;;9.57;100.00;97915.08;2179814;81;21339;-59
2023/01/05 04:45:58;;;;;;;6.08;1.87;;;;;;;9.38;100.00;97957.89;2180291;81;21465;-58
2023/01/05 04:49:00;;;;;;;5.37;1.75;;;;;;;9.25;100.00;97944.82;2179830;81;21094;-59
2023/01/05 04:52:01;;;;;;;5.97;1.67;;;;;;;9.23;100.00;97947.55;2179596;81;20977;-59
2023/01/05 04:55:03;;;;;;;5.92;1.67;;;;;;;9.31;100.00;97954.85;2180174;81;21013;-59
2023/01/05 04:58:04;;;;;;;8.27;1.47;;;;;;;9.31;100.00;97926.06;2180106;82;21137;-58
2023/01/05 05:01:06;;;;;;;5.90;1.30;;;;;;;9.15;100.00;97953.32;2180164;81;21473;-59
2023/01/05 05:04:07;;;;;;;6.05;1.22;;;;;;;9.11;100.00;97956.27;2179974;82;21060;-59
2023/01/05 05:07:09;;;;;;;3.77;0.90;;;;;;;9.10;100.00;97948.04;2180468;81;21464;-59
2023/01/05 05:10:10;;;;;;;6.08;1.12;;;;;;;9.09;100.00;97970.73;2180092;81;21072;-59
2023/01/05 05:13:12;;;;;;;4.97;1.30;;;;;;;9.05;100.00;98007.67;2180334;81;21001;-59
2023/01/05 05:16:13;;;;;;;4.95;1.00;;;;;;;9.01;100.00;97990.05;2180193;81;21024;-59
2023/01/05 05:19:15;;;;;;;5.78;0.90;;;;;;;9.07;100.00;97995.34;2180323;82;20994;-59
2023/01/05 05:22:16;;;;;;;4.42;0.98;;;;;;;9.19;100.00;97998.41;2175082;81;21020;-59
2023/01/05 05:25:18;;;;;;;7.43;0.97;;;;;;;9.31;100.00;97968.80;2170513;82;21077;-59
2023/01/05 05:28:21;;;;;;;3.20;0.90;;;;;;;9.31;100.00;97977.09;2170512;82;21541;-59
2023/01/05 05:31:23;;;;;;;4.03;0.70;;;;;;;9.23;100.00;97986.80;2170282;82;20985;-59
2023/01/05 05:34:24;;;;;;;3.58;0.72;;;;;;;9.08;100.00;97978.23;2170286;82;20991;-59
2023/01/05 05:37:26;;;;;;;6.20;1.10;;;;;;;9.08;100.00;98004.39;2170371;82;21607;-59
2023/01/05 05:40:27;;;;;;;7.22;1.20;;;;;;;9.11;100.00;97988.48;2170193;82;21125;-59
2023/01/05 05:43:29;;;;;;;8.75;1.65;;;;;;;8.99;100.00;97978.39;2170408;82;21560;-59
2023/01/05 05:46:31;;;;;;;9.68;1.60;;;;;;;9.03;100.00;97979.48;2170162;82;21069;-59
2023/01/05 05:49:32;;;;;;;13.18;2.30;;;;;;;8.93;100.00;97976.17;2170161;82;20974;-59
2023/01/05 05:52:33;;;;;;;10.53;2.25;;;;;;;8.83;100.00;97979.91;2170100;82;21058;-59
2023/01/05 05:55:35;;;;;;;13.90;2.52;;;;;;;8.82;100.00;97970.38;2170224;82;21077;-59
2023/01/05 05:58:36;;;;;;;8.73;2.02;;;;;;;8.79;100.00;97972.34;2170256;82;21101;-59
2023/01/05 06:01:38;;;;;;;8.35;2.30;;;;;;;8.73;100.00;97965.75;2170233;82;21069;-59
2023/01/05 06:04:39;;;;;;;7.25;1.75;;;;;;;8.71;100.00;97959.80;2170080;82;21042;-59
2023/01/05 06:07:40;;;;;;;9.70;1.25;;;;;;;8.69;100.00;97951.20;2170032;82;21584;-59
2023/01/05 06:10:42;;;;;;;4.97;1.37;;;;;;;8.71;100.00;97964.20;2170248;82;21046;-59
2023/01/05 06:13:44;;;;;;;4.25;1.57;;;;;;;8.60;100.00;97962.28;2170373;82;21580;-59
2023/01/05 06:16:45;;;;;;;5.92;1.45;;;;;;;8.62;100.00;97957.33;2170198;82;21096;-59
2023/01/05 06:19:47;;;;;;;3.73;1.13;;;;;;;8.60;100.00;97949.22;2170357;82;21134;-59
2023/01/05 06:22:48;;;;;;;5.92;1.30;;;;;;;8.56;100.00;97949.05;2175668;82;20982;-59
2023/01/05 06:25:49;;;;;;;5.25;1.20;;;;;;;8.52;100.00;97960.20;2180421;81;20986;-59
2023/01/05 06:28:51;;;;;;;8.55;2.00;;;;;;;8.48;100.00;97960.02;2180278;81;20989;-59
2023/01/05 06:31:52;;;;;;;9.05;2.05;;;;;;;8.51;100.00;97970.27;2180034;81;20990;-59
2023/01/05 06:34:54;;;;;;;7.17;1.80;;;;;;;8.41;100.00;97960.03;2180088;81;21541;-59
2023/01/05 06:37:55;;;;;;;8.90;2.70;;;;;;;8.52;100.00;97972.41;2179961;81;20993;-59
2023/01/05 06:40:58;;;;;;;6.30;1.55;;;;;;;8.49;100.00;97963.84;2179984;81;20992;-59
2023/01/05 06:43:59;;;;;;;7.75;1.80;;;;;;;8.52;100.00;97977.63;2180053;82;21014;-59
2023/01/05 06:47:01;;;;;;;8.23;1.98;;;;;;;8.55;100.00;97978.28;2180383;82;21492;-59
2023/01/05 06:50:02;;;;;;;7.53;2.00;;;;;;;8.49;100.00;97972.13;2180137;81;20974;-58
2023/01/05 06:53:04;;;;;;;6.72;1.65;;;;;;;8.64;100.00;97977.66;2180093;81;21493;-59
2023/01/05 06:56:05;;;;;;;5.67;1.60;;;;;;;8.61;100.00;97990.94;2180448;82;21080;-59
2023/01/05 06:59:07;;;;;;;12.00;2.15;;;;;;;8.63;100.00;97993.00;2180012;81;21056;-59
2023/01/05 07:02:08;;;;;;;9.80;2.20;;;;;;;8.65;100.00;97995.51;2179862;81;21032;-59
2023/01/05 07:05:09;;;;;;;8.63;2.02;;;;;;;8.66;100.00;97983.64;2179991;81;20986;-59
2023/01/05 07:08:11;;;;;;;11.68;2.50;;;;;;;8.65;100.00;97996.33;2180239;81;21520;-59
2023/01/05 07:11:12;;;;;;;12.33;2.50;;;;;;;8.64;100.00;97986.81;2180002;82;20978;-59
2023/01/05 07:14:14;;;;;;;8.18;2.05;;;;;;;8.64;100.00;98017.35;2180089;81;20962;-59
2023/01/05 07:17:16;;;;;;;7.80;2.10;;;;;;;8.67;100.00;98011.91;2180185;82;21002;-59
2023/01/05 07:20:17;;;;;;;12.77;2.23;;;;;;;8.71;100.00;98017.31;2180018;81;21050;-59
2023/01/05 07:23:19;;;;;;;9.23;2.10;;;;;;;8.67;100.00;98015.84;2179873;81;21501;-59
2023/01/05 07:26:20;;;;;;;9.55;1.90;;;;;;;8.62;100.00;98003.08;2180021;81;20982;-59
2023/01/05 07:29:22;;;;;;;7.65;1.67;;;;;;;8.60;100.00;98018.48;2179966;81;21450;-59
2023/01/05 07:32:23;;;;;;;14.28;2.42;;;;;;;8.62;100.00;98033.14;2180196;81;20989;-59
2023/01/05 07:35:24;;;;;;;11.28;2.37;;;;;;;8.67;100.00;98003.59;2180083;81;20978;-59
2023/01/05 07:38:26;;;;;;;13.48;2.27;;;;;;;8.67;100.00;98005.38;2180366;81;20981;-59
2023/01/05 07:41:27;;;;;;;6.83;1.90;;;;;;;8.74;100.00;98003.20;2180100;81;21001;-59
2023/01/05 07:44:29;;;;;;;8.43;2.10;;;;;;;8.69;100.00;98013.12;2180185;81;21459;-59
2023/01/05 07:47:30;;;;;;;10.35;2.47;;;;;;;8.69;100.00;98007.89;2180103;81;21021;-59
2023/01/05 07:50:32;;;;;;;8.35;1.95;;;;;;;8.77;100.00;98016.90;2180055;81;21065;-59
2023/01/05 07:53:34;;;;;;;15.15;2.65;;;;;;;8.80;100.00;98004.09;2179975;81;21003;-59
2023/01/05 07:56:36;;;;;;;8.80;2.05;;;;;;;8.70;100.00;98013.02;2180112;81;21515;-59
2023/01/05 07:59:37;;;;;;;7.97;2.05;;;;;;;8.70;100.00;97996.50;2180069;81;21006;-59
2023/01/05 08:02:39;;;;;;;10.20;2.42;;;;;;;8.80;100.00;98003.61;2179927;81;21020;-59
2023/01/05 08:05:40;;;;;;;7.17;2.20;;;;;;;8.89;100.00;97997.41;2180114;82;21013;-59
2023/01/05 08:08:42;;;;;;;6.95;1.92;;;;;;;8.88;100.00;97997.89;2179953;81;20982;-59
2023/01/05 08:11:43;;;;;;;7.22;1.47;;;;;;;8.87;100.00;98014.99;2180179;81;21472;-59
2023/01/05 08:14:45;;;;;;;13.62;2.22;;;;;;;8.86;100.00;98009.39;2179956;81;20943;-59
2023/01/05 08:17:46;;;;;;;11.28;2.40;;;;;;;8.89;100.00;98017.02;2179901;81;21018;-59
2023/01/05 08:20:47;;;;;;;9.83;2.30;;;;;;;8.94;100.00;98004.00;2180058;81;20978;-59
2023/01/05 08:23:49;;;;;;;10.58;2.10;;;;;;;8.98;100.00;98015.11;2179715;81;21037;-59
2023/01/05 08:26:51;;;;;;;11.35;2.62;;;;;;;9.06;100.00;98014.10;2180143;81;21033;-59
2023/01/05 08:29:52;;;;;;;11.28;2.33;;;;;;;9.11;100.00;98014.64;2179938;81;20978;-59
2023/01/05 08:32:53;;;;;;;14.25;2.85;;;;;;;8.99;100.00;98020.24;2180088;82;21485;-59
2023/01/05 08:35:55;;;;;;;10.30;2.55;;;;;;;9.04;100.00;98016.45;2180149;81;21008;-59
2023/01/05 08:38:56;;;;;;;14.50;3.10;;;;;;;9.03;100.00;98015.62;2179988;82;21097;-59
2023/01/05 08:41:58;;;;;;;15.25;3.25;;;;;;;9.05;100.00;98013.76;2180495;81;21009;-59
2023/01/05 08:44:59;;;;;;;14.33;3.05;;;;;;;9.46;100.00;97994.36;2180156;81;21046;-59
2023/01/05 08:48:01;;;;;;;12.98;2.67;;;;;;;9.52;100.00;98017.97;2180380;81;21441;-59
2023/01/05 08:51:05;;;;;;;13.98;2.77;;;;;;;9.60;100.00;98025.30;2180046;81;21065;-59
2023/01/05 08:54:06;;;;;;;16.10;2.72;;;;;;;9.74;100.00;98017.77;2150923;82;21081;-59
2023/01/05 08:57:07;;;;;;;11.97;2.65;;;;;;;9.82;100.00;98020.20;2180239;81;21473;-59
2023/01/05 09:00:09;;;;;;;13.18;2.52;;;;;;;9.83;100.00;98039.40;2180008;81;21033;-59
2023/01/05 09:03:11;;;;;;;14.80;2.62;;;;;;;9.80;100.00;98016.88;2180335;81;21437;-59
2023/01/05 09:06:12;;;;;;;13.10;2.70;;;;;;;9.94;100.00;98029.45;2180352;81;21013;-59
2023/01/05 09:09:14;;;;;;;17.37;3.08;;;;;;;10.10;100.00;98007.78;2180463;82;21525;-59
2023/01/05 09:12:15;;;;;;;17.55;3.10;;;;;;;9.86;100.00;98031.32;2180235;81;21029;-59
2023/01/05 09:15:18;;;;;;;17.00;3.87;;;;;;;9.77;100.00;98034.12;2180456;81;21088;-59
2023/01/05 09:18:19;;;;;;;14.23;2.83;;;;;;;9.82;100.00;98028.06;2180214;81;20994;-59
2023/01/05 09:21:21;;;;;;;14.10;2.55;;;;;;;9.86;100.00;98013.81;2180084;81;20986;-59
2023/01/05 09:24:22;;;;;;;12.43;2.58;;;;;;;9.76;100.00;98038.98;2171186;81;21082;-59
2023/01/05 09:27:24;;;;;;;16.33;2.53;;;;;;;9.76;100.00;98041.60;2170516;82;21062;-59
2023/01/05 09:30:25;;;;;;;11.95;2.50;;;;;;;9.67;100.00;98049.63;2170698;82;21571;-59
2023/01/05 09:33:27;;;;;;;12.88;2.75;;;;;;;9.54;100.00;98047.03;2170152;82;21046;-60
2023/01/05 09:36:28;;;;;;;11.45;2.52;;;;;;;9.42;100.00;98041.31;2170108;82;21572;-59
2023/01/05 09:39:30;;;;;;;10.50;2.22;;;;;;;9.34;100.00;98044.47;2170529;82;21611;-59
2023/01/05 09:42:32;;;;;;;8.80;2.20;;;;;;;9.52;100.00;98038.45;2170365;82;21105;-59
2023/01/05 09:45:34;;;;;;;11.08;2.20;;;;;;;9.64;100.00;98043.30;2170134;82;21117;-59
2023/01/05 09:48:36;;;;;;;12.83;2.37;;;;;;;9.49;100.00;98038.64;2170343;82;21077;-59
2023/01/05 09:51:37;;;;;;;11.63;2.47;;;;;;;9.36;100.00;98047.80;2170075;82;21082;-59
2023/01/05 09:54:39;;;;;;;8.63;1.90;;;;;;;9.30;100.00;98036.94;2170516;82;21608;-59
2023/01/05 09:57:40;;;;;;;7.05;1.92;;;;;;;9.23;100.00;98054.00;2170340;82;21105;-59
2023/01/05 10:00:42;;;;;;;11.70;2.02;;;;;;;9.14;100.00;98051.54;2170099;82;21517;-59
2023/01/05 10:03:44;;;;;;;9.15;1.87;;;;;;;9.10;100.00;98090.62;2169871;82;21070;-59
2023/01/05 10:06:46;;;;;;;5.50;1.67;;;;;;;8.85;100.00;98034.71;2170536;82;21025;-59
2023/01/05 10:09:47;;;;;;;13.65;2.42;;;;;;;8.63;100.00;98044.42;2170337;82;21110;-59
2023/01/05 10:15:52;;;;;;;8.68;1.67;;;;;;;8.49;100.00;98033.55;2149383;82;21038;-59
2023/01/05 10:18:53;;;;;;;8.35;1.55;;;;;;;8.48;100.00;98045.79;2170211;82;20993;-59
2023/01/05 10:21:55;;;;;;;8.13;1.47;;;;;;;8.43;100.00;98023.47;2170269;82;21598;-59
2023/01/05 10:24:57;;;;;;;9.13;1.62;;;;;;;8.47;100.00;98028.91;2170061;82;21110;-59
2023/01/05 10:27:59;;;;;;;10.38;1.95;;;;;;;8.55;100.00;98024.02;2170607;82;21553;-59
2023/01/05 10:31:00;;;;;;;10.93;2.60;;;;;;;8.90;100.00;98031.30;2170216;82;21058;-59
2023/01/05 10:34:01;;;;;;;12.10;2.50;;;;;;;9.03;100.00;98027.87;2170286;82;21069;-59
2023/01/05 10:37:03;;;;;;;12.10;2.65;;;;;;;9.14;100.00;98026.69;2170268;82;21074;-59
2023/01/05 10:40:04;;;;;;;15.78;3.30;;;;;;;9.20;100.00;98021.02;2170206;82;21047;-59
2023/01/05 10:43:06;;;;;;;15.03;3.13;;;;;;;9.28;100.00;98014.80;2170106;82;21125;-59
2023/01/05 10:46:07;;;;;;;15.13;3.03;;;;;;;9.29;100.00;98009.09;2170058;82;21044;-59
2023/01/05 10:49:09;;;;;;;18.52;4.15;;;;;;;9.30;100.00;98026.47;2170118;82;21612;-59
2023/01/05 10:52:11;;;;;;;17.17;3.27;;;;;;;9.31;100.00;98032.05;2170258;82;21074;-59
2023/01/05 10:55:12;;;;;;;6.97;1.98;;;;;;;9.29;100.00;98037.88;2170066;82;21073;-59
2023/01/05 10:58:14;;;;;;;7.65;2.08;;;;;;;9.30;100.00;98036.45;2170329;82;21090;-59
2023/01/05 11:01:15;;;;;;;12.07;2.35;;;;;;;9.26;100.00;98035.47;2170060;82;21031;-59
2023/01/05 11:04:17;;;;;;;6.42;1.77;;;;;;;9.24;100.00;98039.95;2170356;82;21057;-59
2023/01/05 11:07:18;;;;;;;11.65;2.58;;;;;;;9.19;100.00;98064.68;2170039;82;21026;-59
2023/01/05 11:10:20;;;;;;;4.25;1.45;;;;;;;9.30;100.00;98053.47;2170302;82;21097;-59
2023/01/05 11:13:21;;;;;;;5.90;1.72;;;;;;;9.31;100.00;98055.16;2170406;82;21077;-59
2023/01/05 11:16:22;;;;;;;8.73;1.52;;;;;;;9.31;100.00;98039.45;2170051;82;21113;-59
2023/01/05 11:19:24;;;;;;;6.40;1.42;;;;;;;9.29;100.00;98044.41;2170336;82;21058;-59
2023/01/05 11:22:26;;;;;;;8.08;1.47;;;;;;;9.24;100.00;98040.81;2169925;82;21086;-59
2023/01/05 11:25:27;;;;;;;6.67;1.47;;;;;;;9.21;100.00;98025.33;2170373;82;21624;-59
2023/01/05 11:28:29;;;;;;;5.22;1.62;;;;;;;9.27;100.00;98032.75;2170339;82;21038;-59
2023/01/05 11:31:30;;;;;;;5.33;1.65;;;;;;;9.24;100.00;98015.09;2170382;82;21125;-59
2023/01/05 11:34:32;;;;;;;7.70;1.52;;;;;;;9.17;100.00;98025.16;2170085;82;21036;-59
2023/01/05 11:37:33;;;;;;;6.95;1.75;;;;;;;9.15;100.00;98046.65;2170150;82;21652;-59
2023/01/05 11:40:35;;;;;;;4.12;1.00;;;;;;;9.07;100.00;98028.05;2170167;82;21058;-59
2023/01/05 11:43:39;;;;;;;4.97;1.22;;;;;;;9.04;100.00;98034.76;2149055;82;21034;-59
2023/01/05 11:46:41;;;;;;;7.62;1.62;;;;;;;8.83;100.00;98065.34;2170306;82;21109;-59
2023/01/05 11:49:43;;;;;;;6.87;1.30;;;;;;;8.83;100.00;98045.73;2169951;82;21601;-59
2023/01/05 11:52:44;;;;;;;8.98;1.85;;;;;;;8.72;100.00;98041.22;2170232;82;21086;-59
2023/01/05 11:55:46;;;;;;;9.25;2.08;;;;;;;8.98;100.00;98053.87;2169990;82;21098;-59
2023/01/05 11:58:47;;;;;;;8.25;1.85;;;;;;;8.99;100.00;98049.46;2170125;82;21057;-59
2023/01/05 12:01:49;;;;;;;5.78;1.55;;;;;;;9.00;100.00;98037.59;2169995;82;21053;-59
2023/01/05 12:04:50;;;;;;;5.10;1.67;;;;;;;9.12;100.00;98051.64;2170127;82;21050;-59
2023/01/05 12:07:52;;;;;;;4.40;1.47;;;;;;;9.13;100.00;98045.93;2169721;82;21043;-59
2023/01/05 12:10:54;;;;;;;5.33;1.60;;;;;;;9.00;100.00;98054.59;2170394;82;21121;-58
2023/01/05 12:13:56;;;;;;;4.75;1.40;;;;;;;9.00;100.00;98050.66;2169811;82;21094;-59
2023/01/05 12:16:57;;;;;;;6.80;1.75;;;;;;;8.99;100.00;98096.09;2170113;82;21105;-59
2023/01/05 12:19:59;;;;;;;5.87;1.72;;;;;;;9.09;100.00;98036.13;2169996;82;21058;-59
2023/01/05 12:23:01;;;;;;;4.03;1.27;;;;;;;9.16;100.00;98060.94;2171345;82;21089;-59
2023/01/05 12:26:03;;;;;;;5.50;1.42;;;;;;;9.09;100.00;98050.52;2180166;81;21006;-59
2023/01/05 12:29:05;;;;;;;4.80;1.40;;;;;;;9.08;100.00;98074.16;2180184;82;20997;-59
2023/01/05 12:32:06;;;;;;;4.63;1.43;;;;;;;8.99;100.00;98062.54;2180165;81;20993;-59
2023/01/05 12:35:08;;;;;;;8.40;1.77;;;;;;;9.01;100.00;98054.97;2180266;81;21125;-59
2023/01/05 12:38:09;;;;;;;7.65;1.77;;;;;;;8.97;100.00;98064.44;2180155;82;21001;-59
2023/01/05 12:41:10;;;;;;;7.62;1.65;;;;;;;8.99;100.00;98074.31;2180173;81;21469;-59
2023/01/05 12:44:12;;;;;;;7.47;1.57;;;;;;;8.98;100.00;98056.97;2179895;81;21025;-59
2023/01/05 12:47:13;;;;;;;8.33;1.95;;;;;;;8.97;100.00;98052.66;2179931;81;21552;-59
2023/01/05 12:50:15;;;;;;;8.45;2.30;;;;;;;9.07;100.00;98045.05;2179743;81;21069;-59
2023/01/05 12:53:17;;;;;;;6.10;1.75;;;;;;;9.04;100.00;98043.91;2180403;81;21533;-59
2023/01/05 12:56:18;;;;;;;6.10;1.90;;;;;;;9.05;100.00;98045.60;2180120;81;21005;-59
2023/01/05 12:59:19;;;;;;;13.83;2.40;;;;;;;9.03;100.00;98043.09;2179917;81;21029;-59
2023/01/05 13:02:21;;;;;;;10.00;2.42;;;;;;;9.05;100.00;98048.22;2179945;81;21067;-59
2023/01/05 13:05:22;;;;;;;12.98;2.72;;;;;;;9.13;100.00;98046.76;2179893;81;20950;-59
2023/01/05 13:08:24;;;;;;;12.03;2.77;;;;;;;9.18;100.00;98040.75;2180282;81;21508;-59
2023/01/05 13:11:26;;;;;;;11.78;2.70;;;;;;;9.16;100.00;98035.25;2180144;81;21002;-59
2023/01/05 13:14:27;;;;;;;12.55;2.65;;;;;;;9.23;100.00;98022.13;2180239;81;21523;-59
2023/01/05 13:17:28;;;;;;;13.35;2.90;;;;;;;9.33;100.00;98027.08;2180000;82;21070;-59
2023/01/05 13:20:30;;;;;;;15.08;3.12;;;;;;;9.71;100.00;98026.67;2179891;82;21041;-59
2023/01/05 13:23:31;;;;;;;14.18;2.77;;;;;;;9.91;100.00;98012.17;2177607;82;21006;-59
2023/01/05 13:26:33;;;;;;;10.70;2.33;;;;;;;10.06;100.00;98038.59;2170056;82;21013;-59
2023/01/05 13:29:34;;;;;;;9.90;2.30;;;;;;;10.22;100.00;98024.39;2170511;82;21039;-59
2023/01/05 13:32:36;;;;;;;10.10;2.05;;;;;;;10.12;100.00;97996.70;2170150;82;21046;-59
2023/01/05 13:35:38;;;;;;;10.95;2.00;;;;;;;10.03;100.00;98030.95;2170082;82;21589;-59
2023/01/05 13:38:39;;;;;;;9.95;2.10;;;;;;;10.09;100.00;98041.47;2170163;82;21137;-59
2023/01/05 13:41:41;;;;;;;13.23;2.37;;;;;;;10.11;100.00;98027.77;2170510;82;21544;-59
2023/01/05 13:44:42;;;;;;;6.90;1.90;;;;;;;9.92;100.00;98026.13;2170532;82;21062;-59
2023/01/05 13:47:44;;;;;;;7.47;1.25;;;;;;;9.83;100.00;98020.58;2170537;82;21086;-59
2023/01/05 13:50:45;;;;;;;6.95;1.20;;;;;;;9.73;100.00;98039.69;2170386;82;21551;-59
2023/01/05 13:53:46;;;;;;;9.55;1.00;;;;;;;9.76;100.00;98045.53;2169981;82;21097;-59
2023/01/05 13:56:48;;;;;;;8.18;1.57;;;;;;;9.81;100.00;98040.82;2170450;82;21572;-59
2023/01/05 13:59:50;;;;;;;5.42;1.40;;;;;;;9.62;100.00;98070.53;2170743;82;21100;-59
2023/01/05 14:02:51;;;;;;;8.43;1.62;;;;;;;9.76;100.00;98073.03;2170479;82;21541;-59
2023/01/05 14:05:53;;;;;;;7.13;1.23;;;;;;;9.49;100.00;98111.11;2170316;82;21095;-59
2023/01/05 14:08:55;;;;;;;5.92;1.37;;;;;;;9.45;100.00;98057.29;2170339;82;21082;-59
2023/01/05 14:11:56;;;;;;;5.37;1.32;;;;;;;9.26;100.00;98054.61;2170192;82;21027;-59
2023/01/05 14:14:58;;;;;;;5.62;1.75;;;;;;;9.18;100.00;98055.15;2170102;82;21053;-59
2023/01/05 14:18:01;;;;;;;6.60;1.20;;;;;;;9.14;100.00;98062.83;2170370;82;21065;-59
2023/01/05 14:21:02;;;;;;;6.15;1.62;;;;;;;9.10;100.00;98080.98;2170062;82;21620;-59
2023/01/05 14:24:04;;;;;;;6.37;1.30;;;;;;;9.14;100.00;98086.86;2169891;82;21082;-58
2023/01/05 14:27:05;;;;;;;5.03;1.60;;;;;;;8.99;100.00;98098.71;2170121;82;21537;-59
2023/01/05 14:30:07;;;;;;;5.40;1.60;;;;;;;8.95;100.00;98082.84;2170495;82;21116;-59
2023/01/05 14:33:09;;;;;;;5.53;1.37;;;;;;;8.95;100.00;98095.92;2170293;82;21568;-59
2023/01/05 14:36:10;;;;;;;11.33;1.90;;;;;;;8.86;100.00;98115.30;2170421;82;21070;-59
2023/01/05 14:39:12;;;;;;;6.62;1.55;;;;;;;8.72;100.00;98096.13;2170446;82;21648;-59
2023/01/05 14:42:13;;;;;;;7.28;1.62;;;;;;;8.67;100.00;98113.88;2170167;82;21157;-59